sensor_id;sensor_type;location;lat;lon;timestamp;temperature;humidity
8422;DHT22;4248;48.196;10.924;2024-03-02T00:00:22;7.20;52.10
8422;DHT22;4248;48.196;10.924;2024-03-02T00:02:49;7.10;52.70
8422;DHT22;4248;48.196;10.924;2024-03-02T00:05:18;7.10;54.00
8422;DHT22;4248;48.196;10.924;2024-03-02T00:07:46;7.00;54.60
8422;DHT22;4248;48.196;10.924;2024-03-02T00:10:16;7.00;55.10
8422;DHT22;4248;48.196;10.924;2024-03-02T00:12:41;7.00;55.50
8422;DHT22;4248;48.196;10.924;2024-03-02T00:17:56;7.00;55.80
8422;DHT22;4248;48.196;10.924;2024-03-02T00:20:22;7.10;56.00
8422;DHT22;4248;48.196;10.924;2024-03-02T00:22:48;7.00;56.40
8422;DHT22;4248;48.196;10.924;2024-03-02T00:25:14;7.00;56.50
8422;DHT22;4248;48.196;10.924;2024-03-02T00:27:40;7.00;56.70
8422;DHT22;4248;48.196;10.924;2024-03-02T00:33:08;7.00;56.90
8422;DHT22;4248;48.196;10.924;2024-03-02T00:35:34;7.00;57.10
8422;DHT22;4248;48.196;10.924;2024-03-02T00:38:07;7.00;57.40
8422;DHT22;4248;48.196;10.924;2024-03-02T00:40:32;7.00;57.40
8422;DHT22;4248;48.196;10.924;2024-03-02T00:42:58;7.00;57.40
8422;DHT22;4248;48.196;10.924;2024-03-02T00:45:25;7.10;57.40
8422;DHT22;4248;48.196;10.924;2024-03-02T00:47:51;7.10;57.20
8422;DHT22;4248;48.196;10.924;2024-03-02T00:50:17;7.10;57.20
8422;DHT22;4248;48.196;10.924;2024-03-02T00:52:43;7.10;57.20
8422;DHT22;4248;48.196;10.924;2024-03-02T00:55:09;7.10;57.10
8422;DHT22;4248;48.196;10.924;2024-03-02T00:57:34;7.10;57.00
8422;DHT22;4248;48.196;10.924;2024-03-02T01:00:00;7.10;57.20
8422;DHT22;4248;48.196;10.924;2024-03-02T01:02:26;7.10;57.20
8422;DHT22;4248;48.196;10.924;2024-03-02T01:04:52;7.10;57.50
8422;DHT22;4248;48.196;10.924;2024-03-02T01:07:17;7.10;57.70
8422;DHT22;4248;48.196;10.924;2024-03-02T01:09:43;7.00;57.70
8422;DHT22;4248;48.196;10.924;2024-03-02T01:12:08;6.90;57.90
8422;DHT22;4248;48.196;10.924;2024-03-02T01:14:34;7.00;58.10
8422;DHT22;4248;48.196;10.924;2024-03-02T01:17:00;7.00;58.10
8422;DHT22;4248;48.196;10.924;2024-03-02T01:19:29;7.00;57.90
8422;DHT22;4248;48.196;10.924;2024-03-02T01:21:54;7.00;58.00
8422;DHT22;4248;48.196;10.924;2024-03-02T01:24:20;7.00;58.00
8422;DHT22;4248;48.196;10.924;2024-03-02T01:26:45;7.00;58.00
8422;DHT22;4248;48.196;10.924;2024-03-02T01:29:11;7.00;57.90
8422;DHT22;4248;48.196;10.924;2024-03-02T01:31:36;7.10;57.60
8422;DHT22;4248;48.196;10.924;2024-03-02T01:34:02;7.00;57.40
8422;DHT22;4248;48.196;10.924;2024-03-02T01:36:27;7.00;57.30
8422;DHT22;4248;48.196;10.924;2024-03-02T01:38:53;7.00;57.20
8422;DHT22;4248;48.196;10.924;2024-03-02T01:41:18;7.00;57.30
8422;DHT22;4248;48.196;10.924;2024-03-02T01:43:44;7.00;57.30
8422;DHT22;4248;48.196;10.924;2024-03-02T01:46:09;7.00;57.30
8422;DHT22;4248;48.196;10.924;2024-03-02T01:48:35;7.00;57.40
8422;DHT22;4248;48.196;10.924;2024-03-02T01:51:00;7.00;57.20
8422;DHT22;4248;48.196;10.924;2024-03-02T01:53:26;7.00;57.30
8422;DHT22;4248;48.196;10.924;2024-03-02T01:55:52;7.00;57.30
8422;DHT22;4248;48.196;10.924;2024-03-02T01:58:17;7.00;57.30
8422;DHT22;4248;48.196;10.924;2024-03-02T02:00:43;7.00;57.20
8422;DHT22;4248;48.196;10.924;2024-03-02T02:03:10;7.00;57.20
8422;DHT22;4248;48.196;10.924;2024-03-02T02:05:35;7.00;57.20
8422;DHT22;4248;48.196;10.924;2024-03-02T02:08:01;7.00;57.30
8422;DHT22;4248;48.196;10.924;2024-03-02T02:10:27;7.00;57.30
8422;DHT22;4248;48.196;10.924;2024-03-02T02:12:52;7.00;57.40
8422;DHT22;4248;48.196;10.924;2024-03-02T02:15:31;7.10;57.30
8422;DHT22;4248;48.196;10.924;2024-03-02T02:17:58;7.10;57.20
8422;DHT22;4248;48.196;10.924;2024-03-02T02:20:24;7.10;57.20
8422;DHT22;4248;48.196;10.924;2024-03-02T02:22:57;7.10;57.30
8422;DHT22;4248;48.196;10.924;2024-03-02T02:25:23;7.10;57.30
8422;DHT22;4248;48.196;10.924;2024-03-02T02:27:49;7.10;57.40
8422;DHT22;4248;48.196;10.924;2024-03-02T02:30:19;7.10;57.30
8422;DHT22;4248;48.196;10.924;2024-03-02T02:32:46;7.20;57.30
8422;DHT22;4248;48.196;10.924;2024-03-02T02:35:12;7.10;57.40
8422;DHT22;4248;48.196;10.924;2024-03-02T02:37:38;7.10;57.40
8422;DHT22;4248;48.196;10.924;2024-03-02T02:40:04;7.10;57.50
8422;DHT22;4248;48.196;10.924;2024-03-02T02:42:30;7.10;57.60
8422;DHT22;4248;48.196;10.924;2024-03-02T02:44:56;7.10;57.70
8422;DHT22;4248;48.196;10.924;2024-03-02T02:47:21;7.10;57.70
8422;DHT22;4248;48.196;10.924;2024-03-02T02:49:47;7.10;57.90
8422;DHT22;4248;48.196;10.924;2024-03-02T02:52:12;7.10;57.70
8422;DHT22;4248;48.196;10.924;2024-03-02T02:54:38;7.10;57.70
8422;DHT22;4248;48.196;10.924;2024-03-02T02:57:03;7.10;57.50
8422;DHT22;4248;48.196;10.924;2024-03-02T02:59:29;7.20;57.30
8422;DHT22;4248;48.196;10.924;2024-03-02T03:01:54;7.20;57.00
8422;DHT22;4248;48.196;10.924;2024-03-02T03:04:20;7.20;56.80
8422;DHT22;4248;48.196;10.924;2024-03-02T03:06:45;7.10;56.70
8422;DHT22;4248;48.196;10.924;2024-03-02T03:09:11;7.10;56.80
8422;DHT22;4248;48.196;10.924;2024-03-02T03:11:37;7.10;56.80
8422;DHT22;4248;48.196;10.924;2024-03-02T03:14:02;7.10;57.00
8422;DHT22;4248;48.196;10.924;2024-03-02T03:16:30;7.10;57.20
8422;DHT22;4248;48.196;10.924;2024-03-02T03:18:56;7.10;57.30
8422;DHT22;4248;48.196;10.924;2024-03-02T03:21:21;7.10;57.20
8422;DHT22;4248;48.196;10.924;2024-03-02T03:23:47;7.10;57.40
8422;DHT22;4248;48.196;10.924;2024-03-02T03:26:12;7.10;57.40
8422;DHT22;4248;48.196;10.924;2024-03-02T03:28:38;7.10;57.60
8422;DHT22;4248;48.196;10.924;2024-03-02T03:31:04;7.00;57.60
8422;DHT22;4248;48.196;10.924;2024-03-02T03:33:29;7.00;57.60
8422;DHT22;4248;48.196;10.924;2024-03-02T03:35:55;7.10;57.40
8422;DHT22;4248;48.196;10.924;2024-03-02T03:38:20;7.10;57.10
8422;DHT22;4248;48.196;10.924;2024-03-02T03:40:46;7.10;57.00
8422;DHT22;4248;48.196;10.924;2024-03-02T03:43:12;7.10;57.10
8422;DHT22;4248;48.196;10.924;2024-03-02T03:45:38;7.10;56.90
8422;DHT22;4248;48.196;10.924;2024-03-02T03:48:04;7.00;56.90
8422;DHT22;4248;48.196;10.924;2024-03-02T03:50:29;7.00;57.10
8422;DHT22;4248;48.196;10.924;2024-03-02T03:52:55;7.00;57.20
8422;DHT22;4248;48.196;10.924;2024-03-02T03:55:20;7.00;57.70
8422;DHT22;4248;48.196;10.924;2024-03-02T03:57:46;6.90;58.00
8422;DHT22;4248;48.196;10.924;2024-03-02T04:00:12;6.90;58.30
8422;DHT22;4248;48.196;10.924;2024-03-02T04:02:38;6.80;58.30
8422;DHT22;4248;48.196;10.924;2024-03-02T04:05:05;6.80;58.30
8422;DHT22;4248;48.196;10.924;2024-03-02T04:07:37;6.80;58.30
8422;DHT22;4248;48.196;10.924;2024-03-02T04:10:10;6.90;58.40
8422;DHT22;4248;48.196;10.924;2024-03-02T04:12:36;6.90;58.20
8422;DHT22;4248;48.196;10.924;2024-03-02T04:15:06;6.90;58.20
8422;DHT22;4248;48.196;10.924;2024-03-02T04:17:32;6.90;58.10
8422;DHT22;4248;48.196;10.924;2024-03-02T04:19:59;6.80;58.10
8422;DHT22;4248;48.196;10.924;2024-03-02T04:22:25;6.90;58.30
8422;DHT22;4248;48.196;10.924;2024-03-02T04:24:51;6.90;58.30
8422;DHT22;4248;48.196;10.924;2024-03-02T04:27:17;6.90;58.00
8422;DHT22;4248;48.196;10.924;2024-03-02T04:29:42;7.00;57.70
8422;DHT22;4248;48.196;10.924;2024-03-02T04:32:08;7.00;57.20
8422;DHT22;4248;48.196;10.924;2024-03-02T04:34:33;7.00;57.00
8422;DHT22;4248;48.196;10.924;2024-03-02T04:36:59;7.00;56.90
8422;DHT22;4248;48.196;10.924;2024-03-02T04:39:24;7.00;57.10
8422;DHT22;4248;48.196;10.924;2024-03-02T04:41:50;7.00;57.00
8422;DHT22;4248;48.196;10.924;2024-03-02T04:44:15;7.00;57.00
8422;DHT22;4248;48.196;10.924;2024-03-02T04:46:41;7.00;56.90
8422;DHT22;4248;48.196;10.924;2024-03-02T04:49:07;7.10;57.20
8422;DHT22;4248;48.196;10.924;2024-03-02T04:51:32;7.10;57.20
8422;DHT22;4248;48.196;10.924;2024-03-02T04:53:58;7.00;57.30
8422;DHT22;4248;48.196;10.924;2024-03-02T04:56:23;7.00;57.50
8422;DHT22;4248;48.196;10.924;2024-03-02T04:58:51;7.00;57.50
8422;DHT22;4248;48.196;10.924;2024-03-02T05:01:17;7.00;57.60
8422;DHT22;4248;48.196;10.924;2024-03-02T05:03:42;6.90;57.70
8422;DHT22;4248;48.196;10.924;2024-03-02T05:06:08;6.80;57.90
8422;DHT22;4248;48.196;10.924;2024-03-02T05:08:34;6.80;58.20
8422;DHT22;4248;48.196;10.924;2024-03-02T05:10:59;6.70;58.60
8422;DHT22;4248;48.196;10.924;2024-03-02T05:13:45;6.60;59.90
8422;DHT22;4248;48.196;10.924;2024-03-02T05:16:10;6.50;59.30
8422;DHT22;4248;48.196;10.924;2024-03-02T05:18:37;6.50;59.50
8422;DHT22;4248;48.196;10.924;2024-03-02T05:21:03;6.40;59.50
8422;DHT22;4248;48.196;10.924;2024-03-02T05:23:29;6.50;59.30
8422;DHT22;4248;48.196;10.924;2024-03-02T05:25:54;6.40;59.00
8422;DHT22;4248;48.196;10.924;2024-03-02T05:28:20;6.40;58.90
8422;DHT22;4248;48.196;10.924;2024-03-02T05:30:45;6.30;58.90
8422;DHT22;4248;48.196;10.924;2024-03-02T05:33:11;6.30;59.00
8422;DHT22;4248;48.196;10.924;2024-03-02T05:35:37;6.10;59.20
8422;DHT22;4248;48.196;10.924;2024-03-02T05:38:02;6.10;59.70
8422;DHT22;4248;48.196;10.924;2024-03-02T05:40:28;5.90;60.40
8422;DHT22;4248;48.196;10.924;2024-03-02T05:42:53;5.80;61.70
8422;DHT22;4248;48.196;10.924;2024-03-02T05:45:19;5.70;61.70
8422;DHT22;4248;48.196;10.924;2024-03-02T05:47:44;5.70;61.70
8422;DHT22;4248;48.196;10.924;2024-03-02T05:50:10;5.70;61.70
8422;DHT22;4248;48.196;10.924;2024-03-02T05:52:35;5.70;61.70
8422;DHT22;4248;48.196;10.924;2024-03-02T05:55:01;5.70;61.70
8422;DHT22;4248;48.196;10.924;2024-03-02T05:57:27;5.60;61.70
8422;DHT22;4248;48.196;10.924;2024-03-02T06:00:05;5.60;61.60
8422;DHT22;4248;48.196;10.924;2024-03-02T06:02:33;5.60;61.70
8422;DHT22;4248;48.196;10.924;2024-03-02T06:05:00;5.50;62.70
8422;DHT22;4248;48.196;10.924;2024-03-02T06:07:26;5.40;61.50
8422;DHT22;4248;48.196;10.924;2024-03-02T06:09:51;5.40;62.40
8422;DHT22;4248;48.196;10.924;2024-03-02T06:12:18;5.30;62.70
8422;DHT22;4248;48.196;10.924;2024-03-02T06:14:44;5.30;62.80
8422;DHT22;4248;48.196;10.924;2024-03-02T06:17:09;5.30;62.70
8422;DHT22;4248;48.196;10.924;2024-03-02T06:19:35;5.40;62.70
8422;DHT22;4248;48.196;10.924;2024-03-02T06:22:00;5.40;62.60
8422;DHT22;4248;48.196;10.924;2024-03-02T06:24:26;5.40;62.50
8422;DHT22;4248;48.196;10.924;2024-03-02T06:26:51;5.50;62.30
8422;DHT22;4248;48.196;10.924;2024-03-02T06:29:17;5.50;61.80
8422;DHT22;4248;48.196;10.924;2024-03-02T06:31:43;5.60;61.60
8422;DHT22;4248;48.196;10.924;2024-03-02T06:34:08;5.60;61.60
8422;DHT22;4248;48.196;10.924;2024-03-02T06:36:34;5.60;61.60
8422;DHT22;4248;48.196;10.924;2024-03-02T06:39:00;5.70;61.70
8422;DHT22;4248;48.196;10.924;2024-03-02T06:41:25;5.70;61.70
8422;DHT22;4248;48.196;10.924;2024-03-02T06:43:52;5.80;61.80
8422;DHT22;4248;48.196;10.924;2024-03-02T06:46:25;5.80;62.00
8422;DHT22;4248;48.196;10.924;2024-03-02T06:48:50;6.00;61.40
8422;DHT22;4248;48.196;10.924;2024-03-02T06:51:16;6.30;61.10
8422;DHT22;4248;48.196;10.924;2024-03-02T06:53:41;6.40;60.70
8422;DHT22;4248;48.196;10.924;2024-03-02T06:56:07;6.60;60.20
8422;DHT22;4248;48.196;10.924;2024-03-02T06:58:36;6.80;60.00
8422;DHT22;4248;48.196;10.924;2024-03-02T07:01:02;7.00;59.70
8422;DHT22;4248;48.196;10.924;2024-03-02T07:03:27;7.20;59.60
8422;DHT22;4248;48.196;10.924;2024-03-02T07:05:53;7.40;59.60
8422;DHT22;4248;48.196;10.924;2024-03-02T07:08:18;7.60;59.40
8422;DHT22;4248;48.196;10.924;2024-03-02T07:10:44;7.70;59.40
8422;DHT22;4248;48.196;10.924;2024-03-02T07:13:09;7.70;59.70
8422;DHT22;4248;48.196;10.924;2024-03-02T07:15:35;7.70;60.20
8422;DHT22;4248;48.196;10.924;2024-03-02T07:18:30;7.60;60.00
8422;DHT22;4248;48.196;10.924;2024-03-02T07:21:10;7.60;60.40
8422;DHT22;4248;48.196;10.924;2024-03-02T07:23:36;7.60;60.50
8422;DHT22;4248;48.196;10.924;2024-03-02T07:26:02;7.70;60.80
8422;DHT22;4248;48.196;10.924;2024-03-02T07:28:28;7.70;60.80
8422;DHT22;4248;48.196;10.924;2024-03-02T07:31:01;7.70;60.80
8422;DHT22;4248;48.196;10.924;2024-03-02T07:33:27;7.80;60.90
8422;DHT22;4248;48.196;10.924;2024-03-02T07:35:54;7.90;61.00
8422;DHT22;4248;48.196;10.924;2024-03-02T07:38:20;8.00;61.00
8422;DHT22;4248;48.196;10.924;2024-03-02T07:40:48;8.00;61.00
8422;DHT22;4248;48.196;10.924;2024-03-02T07:43:18;8.00;61.00
8422;DHT22;4248;48.196;10.924;2024-03-02T07:45:45;8.10;61.10
8422;DHT22;4248;48.196;10.924;2024-03-02T07:48:11;8.30;61.10
8422;DHT22;4248;48.196;10.924;2024-03-02T07:50:36;8.40;60.90
8422;DHT22;4248;48.196;10.924;2024-03-02T07:53:03;8.50;60.60
8422;DHT22;4248;48.196;10.924;2024-03-02T07:55:29;8.60;60.40
8422;DHT22;4248;48.196;10.924;2024-03-02T07:57:57;8.80;60.40
8422;DHT22;4248;48.196;10.924;2024-03-02T08:00:23;8.90;60.10
8422;DHT22;4248;48.196;10.924;2024-03-02T08:02:50;9.10;60.00
8422;DHT22;4248;48.196;10.924;2024-03-02T08:05:16;9.30;59.70
8422;DHT22;4248;48.196;10.924;2024-03-02T08:07:44;9.50;59.20
8422;DHT22;4248;48.196;10.924;2024-03-02T08:10:10;9.60;58.80
8422;DHT22;4248;48.196;10.924;2024-03-02T08:12:36;9.80;58.50
8422;DHT22;4248;48.196;10.924;2024-03-02T08:15:02;9.90;58.30
8422;DHT22;4248;48.196;10.924;2024-03-02T08:17:27;10.00;56.90
8422;DHT22;4248;48.196;10.924;2024-03-02T08:19:53;10.20;56.50
8422;DHT22;4248;48.196;10.924;2024-03-02T08:22:19;10.40;56.40
8422;DHT22;4248;48.196;10.924;2024-03-02T08:24:45;10.60;55.80
8422;DHT22;4248;48.196;10.924;2024-03-02T08:27:10;10.60;55.00
8422;DHT22;4248;48.196;10.924;2024-03-02T08:29:37;10.70;54.40
8422;DHT22;4248;48.196;10.924;2024-03-02T08:32:03;10.90;54.00
8422;DHT22;4248;48.196;10.924;2024-03-02T08:34:29;11.00;53.60
8422;DHT22;4248;48.196;10.924;2024-03-02T08:36:55;11.10;52.70
8422;DHT22;4248;48.196;10.924;2024-03-02T08:39:21;11.10;52.70
8422;DHT22;4248;48.196;10.924;2024-03-02T08:41:47;11.20;53.10
8422;DHT22;4248;48.196;10.924;2024-03-02T08:44:13;11.20;51.10
8422;DHT22;4248;48.196;10.924;2024-03-02T08:46:40;11.40;51.20
8422;DHT22;4248;48.196;10.924;2024-03-02T08:49:06;11.50;51.00
8422;DHT22;4248;48.196;10.924;2024-03-02T08:51:32;11.50;50.00
8422;DHT22;4248;48.196;10.924;2024-03-02T08:53:58;11.60;49.20
8422;DHT22;4248;48.196;10.924;2024-03-02T08:56:24;11.70;48.90
8422;DHT22;4248;48.196;10.924;2024-03-02T08:58:50;11.70;48.30
8422;DHT22;4248;48.196;10.924;2024-03-02T09:01:16;11.90;48.00
8422;DHT22;4248;48.196;10.924;2024-03-02T09:03:42;12.10;48.10
8422;DHT22;4248;48.196;10.924;2024-03-02T09:06:12;12.10;45.80
8422;DHT22;4248;48.196;10.924;2024-03-02T09:08:39;12.20;44.80
8422;DHT22;4248;48.196;10.924;2024-03-02T09:11:05;12.30;44.60
8422;DHT22;4248;48.196;10.924;2024-03-02T09:13:32;12.40;43.60
8422;DHT22;4248;48.196;10.924;2024-03-02T09:15:58;12.60;42.40
8422;DHT22;4248;48.196;10.924;2024-03-02T09:18:23;12.60;42.50
8422;DHT22;4248;48.196;10.924;2024-03-02T09:20:49;12.60;41.60
8422;DHT22;4248;48.196;10.924;2024-03-02T09:23:14;12.60;40.80
8422;DHT22;4248;48.196;10.924;2024-03-02T09:25:40;12.70;40.90
8422;DHT22;4248;48.196;10.924;2024-03-02T09:28:06;12.80;41.10
8422;DHT22;4248;48.196;10.924;2024-03-02T09:30:32;12.80;40.90
8422;DHT22;4248;48.196;10.924;2024-03-02T09:32:58;13.00;39.70
8422;DHT22;4248;48.196;10.924;2024-03-02T09:35:24;13.10;38.50
8422;DHT22;4248;48.196;10.924;2024-03-02T09:37:49;13.10;37.90
8422;DHT22;4248;48.196;10.924;2024-03-02T09:40:15;13.10;36.90
8422;DHT22;4248;48.196;10.924;2024-03-02T09:42:41;13.00;37.00
8422;DHT22;4248;48.196;10.924;2024-03-02T09:45:08;13.10;36.40
8422;DHT22;4248;48.196;10.924;2024-03-02T09:47:34;13.20;35.40
8422;DHT22;4248;48.196;10.924;2024-03-02T09:50:00;13.10;35.00
8422;DHT22;4248;48.196;10.924;2024-03-02T09:52:26;13.20;34.50
8422;DHT22;4248;48.196;10.924;2024-03-02T09:54:51;13.10;34.40
8422;DHT22;4248;48.196;10.924;2024-03-02T09:57:17;13.10;33.40
8422;DHT22;4248;48.196;10.924;2024-03-02T09:59:42;13.20;31.70
8422;DHT22;4248;48.196;10.924;2024-03-02T10:02:08;13.30;31.70
8422;DHT22;4248;48.196;10.924;2024-03-02T10:04:34;13.50;31.10
8422;DHT22;4248;48.196;10.924;2024-03-02T10:07:18;13.50;30.30
8422;DHT22;4248;48.196;10.924;2024-03-02T10:09:48;13.40;30.00
8422;DHT22;4248;48.196;10.924;2024-03-02T10:12:15;13.40;28.60
8422;DHT22;4248;48.196;10.924;2024-03-02T10:14:42;13.20;27.50
8422;DHT22;4248;48.196;10.924;2024-03-02T10:17:09;13.10;27.50
8422;DHT22;4248;48.196;10.924;2024-03-02T10:19:36;13.10;28.30
8422;DHT22;4248;48.196;10.924;2024-03-02T10:22:03;13.10;28.40
8422;DHT22;4248;48.196;10.924;2024-03-02T10:24:41;13.30;28.40
8422;DHT22;4248;48.196;10.924;2024-03-02T10:27:17;13.30;28.40
8422;DHT22;4248;48.196;10.924;2024-03-02T10:29:46;13.20;28.40
8422;DHT22;4248;48.196;10.924;2024-03-02T10:32:12;13.00;27.40
8422;DHT22;4248;48.196;10.924;2024-03-02T10:34:40;12.80;28.10
8422;DHT22;4248;48.196;10.924;2024-03-02T10:37:06;12.70;28.00
8422;DHT22;4248;48.196;10.924;2024-03-02T10:39:34;12.70;28.00
8422;DHT22;4248;48.196;10.924;2024-03-02T10:42:02;12.70;29.00
8422;DHT22;4248;48.196;10.924;2024-03-02T10:44:29;12.70;28.00
8422;DHT22;4248;48.196;10.924;2024-03-02T10:46:55;12.70;28.00
8422;DHT22;4248;48.196;10.924;2024-03-02T10:49:23;12.70;28.00
8422;DHT22;4248;48.196;10.924;2024-03-02T10:51:50;12.80;28.10
8422;DHT22;4248;48.196;10.924;2024-03-02T10:54:15;12.70;27.90
8422;DHT22;4248;48.196;10.924;2024-03-02T10:56:43;12.50;27.90
8422;DHT22;4248;48.196;10.924;2024-03-02T10:59:33;12.50;27.90
8422;DHT22;4248;48.196;10.924;2024-03-02T11:02:01;12.50;27.90
8422;DHT22;4248;48.196;10.924;2024-03-02T11:04:29;12.50;27.70
8422;DHT22;4248;48.196;10.924;2024-03-02T11:07:02;12.70;28.00
8422;DHT22;4248;48.196;10.924;2024-03-02T11:09:30;12.70;27.10
8422;DHT22;4248;48.196;10.924;2024-03-02T11:13:05;12.70;26.70
8422;DHT22;4248;48.196;10.924;2024-03-02T11:15:00;13.00;26.50
8422;DHT22;4248;48.196;10.924;2024-03-02T11:17:26;13.00;25.70
8422;DHT22;4248;48.196;10.924;2024-03-02T11:19:52;13.00;25.90
8422;DHT22;4248;48.196;10.924;2024-03-02T11:22:19;12.90;25.30
8422;DHT22;4248;48.196;10.924;2024-03-02T11:24:51;12.80;25.40
8422;DHT22;4248;48.196;10.924;2024-03-02T11:32:59;13.00;25.90
8422;DHT22;4248;48.196;10.924;2024-03-02T11:35:28;13.00;25.70
8422;DHT22;4248;48.196;10.924;2024-03-02T11:37:54;12.90;25.60
8422;DHT22;4248;48.196;10.924;2024-03-02T11:40:24;12.90;25.70
8422;DHT22;4248;48.196;10.924;2024-03-02T11:42:50;12.90;26.00
8422;DHT22;4248;48.196;10.924;2024-03-02T11:45:23;12.90;26.30
8422;DHT22;4248;48.196;10.924;2024-03-02T11:47:55;13.00;26.40
8422;DHT22;4248;48.196;10.924;2024-03-02T11:52:58;13.10;26.60
8422;DHT22;4248;48.196;10.924;2024-03-02T11:55:26;13.00;26.30
8422;DHT22;4248;48.196;10.924;2024-03-02T11:57:54;13.00;26.70
8422;DHT22;4248;48.196;10.924;2024-03-02T12:00:21;12.90;27.20
8422;DHT22;4248;48.196;10.924;2024-03-02T12:02:59;12.80;27.40
8422;DHT22;4248;48.196;10.924;2024-03-02T12:05:27;12.70;26.80
8422;DHT22;4248;48.196;10.924;2024-03-02T12:07:57;12.60;27.10
8422;DHT22;4248;48.196;10.924;2024-03-02T12:10:23;12.60;27.50
8422;DHT22;4248;48.196;10.924;2024-03-02T12:12:55;12.60;27.90
8422;DHT22;4248;48.196;10.924;2024-03-02T12:15:26;12.80;27.80
8422;DHT22;4248;48.196;10.924;2024-03-02T12:17:56;12.80;28.00
8422;DHT22;4248;48.196;10.924;2024-03-02T12:20:23;12.70;28.00
8422;DHT22;4248;48.196;10.924;2024-03-02T12:22:53;12.70;28.00
8422;DHT22;4248;48.196;10.924;2024-03-02T12:25:23;12.70;28.00
8422;DHT22;4248;48.196;10.924;2024-03-02T12:27:51;12.70;28.00
8422;DHT22;4248;48.196;10.924;2024-03-02T12:30:17;12.60;28.40
8422;DHT22;4248;48.196;10.924;2024-03-02T12:32:44;12.60;29.00
8422;DHT22;4248;48.196;10.924;2024-03-02T12:35:13;12.50;29.30
8422;DHT22;4248;48.196;10.924;2024-03-02T12:37:45;12.40;29.30
8422;DHT22;4248;48.196;10.924;2024-03-02T12:40:13;12.40;29.70
8422;DHT22;4248;48.196;10.924;2024-03-02T12:42:41;12.40;29.70
8422;DHT22;4248;48.196;10.924;2024-03-02T12:45:08;12.40;29.80
8422;DHT22;4248;48.196;10.924;2024-03-02T12:47:34;12.50;29.90
8422;DHT22;4248;48.196;10.924;2024-03-02T12:50:00;12.50;29.90
8422;DHT22;4248;48.196;10.924;2024-03-02T12:52:26;12.60;29.80
8422;DHT22;4248;48.196;10.924;2024-03-02T12:54:52;12.70;30.00
8422;DHT22;4248;48.196;10.924;2024-03-02T12:57:21;12.70;29.70
8422;DHT22;4248;48.196;10.924;2024-03-02T12:59:47;12.70;29.30
8422;DHT22;4248;48.196;10.924;2024-03-02T13:02:19;12.70;29.30
8422;DHT22;4248;48.196;10.924;2024-03-02T13:04:52;12.70;29.00
8422;DHT22;4248;48.196;10.924;2024-03-02T13:07:20;12.70;28.90
8422;DHT22;4248;48.196;10.924;2024-03-02T13:09:48;12.80;29.10
8422;DHT22;4248;48.196;10.924;2024-03-02T13:12:15;12.80;28.30
8422;DHT22;4248;48.196;10.924;2024-03-02T13:14:41;12.90;28.20
8422;DHT22;4248;48.196;10.924;2024-03-02T13:17:11;13.00;28.30
8422;DHT22;4248;48.196;10.924;2024-03-02T13:19:53;12.90;28.10
8422;DHT22;4248;48.196;10.924;2024-03-02T13:22:19;12.90;29.20
8422;DHT22;4248;48.196;10.924;2024-03-02T13:24:44;13.00;28.20
8422;DHT22;4248;48.196;10.924;2024-03-02T13:27:10;13.00;27.60
8422;DHT22;4248;48.196;10.924;2024-03-02T13:29:35;13.00;28.20
8422;DHT22;4248;48.196;10.924;2024-03-02T13:32:01;13.00;28.00
8422;DHT22;4248;48.196;10.924;2024-03-02T13:34:26;13.10;27.90
8422;DHT22;4248;48.196;10.924;2024-03-02T13:36:52;13.20;27.80
8422;DHT22;4248;48.196;10.924;2024-03-02T13:39:17;13.20;27.50
8422;DHT22;4248;48.196;10.924;2024-03-02T13:41:43;13.20;27.60
8422;DHT22;4248;48.196;10.924;2024-03-02T13:44:17;13.10;27.50
8422;DHT22;4248;48.196;10.924;2024-03-02T13:46:43;13.10;27.20
8422;DHT22;4248;48.196;10.924;2024-03-02T13:49:11;13.10;27.40
8422;DHT22;4248;48.196;10.924;2024-03-02T13:51:37;13.10;27.70
8422;DHT22;4248;48.196;10.924;2024-03-02T13:54:02;13.10;27.70
8422;DHT22;4248;48.196;10.924;2024-03-02T13:56:29;13.20;28.10
8422;DHT22;4248;48.196;10.924;2024-03-02T13:58:55;13.20;28.30
8422;DHT22;4248;48.196;10.924;2024-03-02T14:01:20;13.30;27.90
8422;DHT22;4248;48.196;10.924;2024-03-02T14:03:46;13.30;28.40
8422;DHT22;4248;48.196;10.924;2024-03-02T14:06:12;13.20;28.40
8422;DHT22;4248;48.196;10.924;2024-03-02T14:08:38;13.20;28.40
8422;DHT22;4248;48.196;10.924;2024-03-02T14:11:03;13.20;28.40
8422;DHT22;4248;48.196;10.924;2024-03-02T14:13:29;13.30;28.40
8422;DHT22;4248;48.196;10.924;2024-03-02T14:15:54;13.20;28.40
8422;DHT22;4248;48.196;10.924;2024-03-02T14:18:20;13.20;28.90
8422;DHT22;4248;48.196;10.924;2024-03-02T14:20:46;13.20;29.20
8422;DHT22;4248;48.196;10.924;2024-03-02T14:23:20;13.20;29.30
8422;DHT22;4248;48.196;10.924;2024-03-02T14:25:46;13.10;29.20
8422;DHT22;4248;48.196;10.924;2024-03-02T14:28:11;13.10;29.20
8422;DHT22;4248;48.196;10.924;2024-03-02T14:30:37;13.10;29.40
8422;DHT22;4248;48.196;10.924;2024-03-02T14:33:03;13.10;29.30
8422;DHT22;4248;48.196;10.924;2024-03-02T14:35:29;13.10;29.40
8422;DHT22;4248;48.196;10.924;2024-03-02T14:37:55;13.20;29.50
8422;DHT22;4248;48.196;10.924;2024-03-02T14:40:23;13.10;29.20
8422;DHT22;4248;48.196;10.924;2024-03-02T14:42:50;13.10;29.00
8422;DHT22;4248;48.196;10.924;2024-03-02T14:45:16;13.10;28.80
8422;DHT22;4248;48.196;10.924;2024-03-02T14:47:42;13.00;28.70
8422;DHT22;4248;48.196;10.924;2024-03-02T14:50:07;13.00;28.60
8422;DHT22;4248;48.196;10.924;2024-03-02T14:52:35;13.00;28.70
8422;DHT22;4248;48.196;10.924;2024-03-02T14:55:00;13.00;28.30
8422;DHT22;4248;48.196;10.924;2024-03-02T14:57:27;13.00;28.20
8422;DHT22;4248;48.196;10.924;2024-03-02T14:59:53;13.00;28.20
8422;DHT22;4248;48.196;10.924;2024-03-02T15:02:20;12.90;28.20
8422;DHT22;4248;48.196;10.924;2024-03-02T15:04:45;12.90;28.20
8422;DHT22;4248;48.196;10.924;2024-03-02T15:07:13;12.90;28.10
8422;DHT22;4248;48.196;10.924;2024-03-02T15:09:38;12.80;28.30
8422;DHT22;4248;48.196;10.924;2024-03-02T15:12:06;12.80;28.30
8422;DHT22;4248;48.196;10.924;2024-03-02T15:14:34;12.80;28.30
8422;DHT22;4248;48.196;10.924;2024-03-02T15:17:00;12.80;28.70
8422;DHT22;4248;48.196;10.924;2024-03-02T15:19:26;12.80;29.00
8422;DHT22;4248;48.196;10.924;2024-03-02T15:21:51;12.80;29.10
8422;DHT22;4248;48.196;10.924;2024-03-02T15:24:17;12.70;29.00
8422;DHT22;4248;48.196;10.924;2024-03-02T15:26:42;12.70;29.00
8422;DHT22;4248;48.196;10.924;2024-03-02T15:29:08;12.70;28.80
8422;DHT22;4248;48.196;10.924;2024-03-02T15:31:33;12.70;28.90
8422;DHT22;4248;48.196;10.924;2024-03-02T15:33:59;12.60;28.40
8422;DHT22;4248;48.196;10.924;2024-03-02T15:36:24;12.50;28.50
8422;DHT22;4248;48.196;10.924;2024-03-02T15:38:50;12.40;28.60
8422;DHT22;4248;48.196;10.924;2024-03-02T15:41:16;12.30;29.00
8422;DHT22;4248;48.196;10.924;2024-03-02T15:43:41;12.30;29.20
8422;DHT22;4248;48.196;10.924;2024-03-02T15:46:08;12.00;29.20
8422;DHT22;4248;48.196;10.924;2024-03-02T15:48:34;11.90;29.40
8422;DHT22;4248;48.196;10.924;2024-03-02T15:50:59;11.90;29.60
8422;DHT22;4248;48.196;10.924;2024-03-02T15:53:25;11.90;29.70
8422;DHT22;4248;48.196;10.924;2024-03-02T15:55:51;11.90;29.70
8422;DHT22;4248;48.196;10.924;2024-03-02T15:58:16;11.80;29.70
8422;DHT22;4248;48.196;10.924;2024-03-02T16:00:42;11.90;29.80
8422;DHT22;4248;48.196;10.924;2024-03-02T16:03:08;11.70;29.80
8422;DHT22;4248;48.196;10.924;2024-03-02T16:05:33;11.80;29.80